Terminal Aerodrome Forecast
Issued by NWS

Home | Current Version | Previous Version | Text Only | Print | Product List | Glossary On
Versions: 1 2 3 4 5 6 7 8 9 10 11 12 13 14 15 16 17 18 19 20 21 22
000
FTUS41 KBGM 221137
TAFELM
TAF
KELM 221137Z 2212/2312 VRB03KT 3SM BR BKN003
      TEMPO 2212/2213 1SM BR SCT005
     FM221300 22010KT P6SM SCT045 BKN100
     FM221600 23012G22KT P6SM BKN045
      TEMPO 2219/2223 VRB35KT 3SM +TSRA OVC025CB
     FM222300 25010KT 5SM BR BKN028
     FM230600 29007KT P6SM SCT100=

USA.gov is the U.S. government's official web portal to all federal, state and local government web resources and services.